Time;durP1;ratioP1;P1;durP2;ratioP2;P2;SDS_P1;SDS_P2;PMS_P1;PMS_P2;Temp;Humidity;BMP_temperature;BMP_pressure;BME280_temperature;BME280_humidity;BME280_pressure;Samples;Min_cycle;Max_cycle;Signal;HPM_P1;HPM_P2
2022/05/05 00:01:29;;;;;;;;;;;12.30;99.90;;;;;;5062074;28;19917;-72
2022/05/05 00:03:55;;;;;;;;;;;12.20;99.90;;;;;;5062606;28;19916;-70
2022/05/05 00:06:21;;;;;;;;;;;12.20;99.90;;;;;;5062427;28;19948;-70
2022/05/05 00:08:46;;;;;;;;;;;12.20;99.90;;;;;;5061356;28;19979;-70
2022/05/05 00:16:40;;;;;;;;;;;12.00;99.90;;;;;;5062421;28;19946;-70
2022/05/05 00:19:06;;;;;;;;;;;11.90;99.90;;;;;;5062215;28;19968;-70
2022/05/05 00:21:32;;;;;;;;;;;11.80;99.90;;;;;;5061286;28;19951;-70
2022/05/05 00:23:57;;;;;;;;;;;11.80;99.90;;;;;;5062147;28;20160;-70
2022/05/05 00:26:23;;;;;;;;;;;11.80;99.90;;;;;;5062168;28;19908;-71
2022/05/05 00:28:49;;;;;;;;;;;11.80;99.90;;;;;;5061688;28;19908;-71
2022/05/05 00:31:15;;;;;;;;;;;11.70;99.90;;;;;;5061238;28;20104;-71
2022/05/05 00:33:40;;;;;;;;;;;11.70;99.90;;;;;;5062269;28;19916;-71
2022/05/05 00:36:06;;;;;;;;;;;11.80;99.90;;;;;;5061711;28;20241;-71
2022/05/05 00:38:32;;;;;;;;;;;11.80;99.90;;;;;;5062082;28;19912;-71
2022/05/05 00:40:57;;;;;;;;;;;11.70;99.90;;;;;;5061108;28;19995;-71
2022/05/05 00:43:23;;;;;;;;;;;11.80;99.90;;;;;;5062066;28;19908;-71
2022/05/05 00:45:49;;;;;;;;;;;11.90;99.90;;;;;;5061843;28;19971;-71
2022/05/05 00:48:16;;;;;;;;;;;12.00;99.90;;;;;;5061674;28;20168;-71
2022/05/05 00:50:41;;;;;;;;;;;12.00;99.90;;;;;;5060696;28;19936;-71
2022/05/05 00:53:07;;;;;;;;;;;12.00;99.90;;;;;;5061646;28;19955;-71
2022/05/05 00:55:34;;;;;;;;;;;12.10;99.90;;;;;;5061672;28;19912;-71
2022/05/05 00:58:01;;;;;;;;;;;12.10;99.90;;;;;;5061639;28;19909;-71
2022/05/05 01:00:27;;;;;;;;;;;12.20;99.90;;;;;;5060332;28;20099;-71
2022/05/05 01:02:52;;;;;;;;;;;12.20;99.90;;;;;;5059947;28;19916;-71
2022/05/05 01:05:18;;;;;;;;;;;12.30;99.90;;;;;;5060437;28;19909;-71
2022/05/05 01:07:44;;;;;;;;;;;12.30;99.90;;;;;;5060398;28;19932;-71
2022/05/05 01:10:09;;;;;;;;;;;12.20;99.90;;;;;;5060219;28;19913;-71
2022/05/05 01:12:35;;;;;;;;;;;12.20;99.90;;;;;;5060801;28;19983;-71
2022/05/05 01:15:01;;;;;;;;;;;12.10;99.90;;;;;;5061427;28;20095;-71
2022/05/05 01:17:27;;;;;;;;;;;12.00;99.90;;;;;;5061421;28;19921;-71
2022/05/05 01:19:52;;;;;;;;;;;12.10;99.90;;;;;;5061317;28;19923;-71
2022/05/05 01:22:18;;;;;;;;;;;12.20;99.90;;;;;;5060602;28;19909;-71
2022/05/05 01:30:12;;;;;;;;;;;12.30;99.90;;;;;;5061468;28;20080;-71
2022/05/05 01:32:38;;;;;;;;;;;12.30;99.90;;;;;;5060783;28;19940;-70
2022/05/05 01:35:04;;;;;;;;;;;12.30;99.90;;;;;;5061047;28;19955;-70
2022/05/05 01:37:30;;;;;;;;;;;12.20;99.90;;;;;;5061303;28;19912;-71
2022/05/05 01:39:56;;;;;;;;;;;12.20;99.90;;;;;;5061161;28;20207;-71
2022/05/05 01:42:21;;;;;;;;;;;12.20;99.90;;;;;;5060510;28;19974;-71
2022/05/05 01:44:47;;;;;;;;;;;12.20;99.90;;;;;;5061023;28;19909;-71
2022/05/05 01:47:13;;;;;;;;;;;12.20;99.90;;;;;;5061225;28;20015;-70
2022/05/05 01:49:38;;;;;;;;;;;12.10;99.90;;;;;;5059572;28;19909;-70
2022/05/05 01:52:08;;;;;;;;;;;12.10;99.90;;;;;;5060357;28;19912;-71
2022/05/05 01:54:34;;;;;;;;;;;12.10;99.90;;;;;;5059717;28;20093;-70
2022/05/05 01:57:00;;;;;;;;;;;12.10;99.90;;;;;;5060831;28;19920;-71
2022/05/05 01:59:25;;;;;;;;;;;12.00;99.90;;;;;;5043086;28;19915;-70
2022/05/05 02:01:52;;;;;;;;;;;12.10;99.90;;;;;;5062601;28;20000;-70
2022/05/05 02:04:17;;;;;;;;;;;12.10;99.90;;;;;;5064893;28;19951;-71
2022/05/05 02:06:43;;;;;;;;;;;12.10;99.90;;;;;;5064476;28;19917;-71
2022/05/05 02:09:09;;;;;;;;;;;12.20;99.90;;;;;;5064842;28;20265;-71
2022/05/05 02:11:37;;;;;;;;;;;12.20;99.90;;;;;;5064555;28;19958;-70
2022/05/05 02:14:03;;;;;;;;;;;12.20;99.90;;;;;;5047138;28;19932;-70
2022/05/05 02:16:29;;;;;;;;;;;12.30;99.90;;;;;;5064639;28;19920;-70
2022/05/05 02:18:55;;;;;;;;;;;12.30;99.90;;;;;;5064777;28;20188;-72
2022/05/05 02:21:20;;;;;;;;;;;12.30;99.90;;;;;;5063604;28;19916;-70
2022/05/05 02:23:46;;;;;;;;;;;12.20;99.90;;;;;;5064440;28;19909;-70
2022/05/05 02:26:12;;;;;;;;;;;12.20;99.90;;;;;;5064450;28;19908;-69
2022/05/05 02:28:37;;;;;;;;;;;12.20;99.90;;;;;;5064359;28;19908;-69
2022/05/05 02:31:03;;;;;;;;;;;12.30;99.90;;;;;;5063481;28;19917;-69
2022/05/05 02:33:29;;;;;;;;;;;12.30;99.90;;;;;;5064293;28;19909;-70
2022/05/05 02:38:46;;;;;;;;;;;12.30;99.90;;;;;;5064306;28;19916;-70
2022/05/05 02:41:11;;;;;;;;;;;12.20;99.90;;;;;;5063467;28;19920;-70
2022/05/05 02:43:37;;;;;;;;;;;12.20;99.90;;;;;;5064121;28;19920;-69
2022/05/05 02:46:03;;;;;;;;;;;12.10;99.90;;;;;;5062790;28;19980;-69
2022/05/05 02:48:28;;;;;;;;;;;12.10;99.90;;;;;;5064129;28;20064;-70
2022/05/05 02:50:54;;;;;;;;;;;12.10;99.90;;;;;;5062430;28;19995;-70
2022/05/05 02:56:05;;;;;;;;;;;12.10;99.90;;;;;;5063934;28;19919;-70
2022/05/05 02:58:30;;;;;;;;;;;12.10;99.90;;;;;;5063937;28;19988;-70
2022/05/05 03:00:56;;;;;;;;;;;12.20;99.90;;;;;;5063002;28;19996;-69
2022/05/05 03:03:22;;;;;;;;;;;12.20;99.90;;;;;;5063667;28;19931;-70
2022/05/05 03:05:47;;;;;;;;;;;12.10;99.90;;;;;;5063395;28;19977;-69
2022/05/05 03:08:13;;;;;;;;;;;12.10;99.90;;;;;;5062309;28;19947;-70
2022/05/05 03:10:39;;;;;;;;;;;12.10;99.90;;;;;;5062543;28;20211;-70
2022/05/05 03:13:05;;;;;;;;;;;12.10;99.90;;;;;;5050920;28;19954;-70
2022/05/05 03:15:31;;;;;;;;;;;12.10;99.90;;;;;;5025672;28;19992;-70
2022/05/05 03:17:57;;;;;;;;;;;12.10;99.90;;;;;;5025631;28;19956;-70
2022/05/05 03:20:23;;;;;;;;;;;12.00;99.90;;;;;;5049024;28;20096;-70
2022/05/05 03:22:48;;;;;;;;;;;12.00;99.90;;;;;;5062567;28;19909;-70
2022/05/05 03:25:14;;;;;;;;;;;12.00;99.90;;;;;;5063205;28;20038;-70
2022/05/05 03:27:40;;;;;;;;;;;12.00;99.90;;;;;;5045311;28;19957;-70
2022/05/05 03:30:06;;;;;;;;;;;12.00;99.90;;;;;;5063070;28;20115;-69
2022/05/05 03:32:32;;;;;;;;;;;11.90;99.90;;;;;;5061107;28;19912;-70
2022/05/05 03:34:58;;;;;;;;;;;11.90;99.90;;;;;;5062835;28;19909;-70
2022/05/05 03:37:27;;;;;;;;;;;11.90;99.90;;;;;;5062914;28;20204;-70
2022/05/05 03:39:53;;;;;;;;;;;11.90;99.90;;;;;;5062948;28;19980;-70
2022/05/05 03:42:19;;;;;;;;;;;11.90;99.90;;;;;;5062114;28;20027;-70
2022/05/05 03:44:45;;;;;;;;;;;11.90;99.90;;;;;;5062934;28;20108;-70
2022/05/05 03:47:10;;;;;;;;;;;11.80;99.90;;;;;;5062614;28;19908;-70
2022/05/05 03:49:37;;;;;;;;;;;11.90;99.90;;;;;;5062735;28;19979;-70
2022/05/05 03:52:03;;;;;;;;;;;11.90;99.90;;;;;;5061257;28;20200;-70
2022/05/05 03:54:29;;;;;;;;;;;11.90;99.90;;;;;;5062299;28;20062;-70
2022/05/05 03:56:55;;;;;;;;;;;11.90;99.90;;;;;;5062465;28;19912;-70
2022/05/05 03:59:22;;;;;;;;;;;11.90;99.90;;;;;;5062355;28;19915;-70
2022/05/05 04:01:49;;;;;;;;;;;11.90;99.90;;;;;;5061702;28;19947;-70
2022/05/05 04:04:15;;;;;;;;;;;12.00;99.90;;;;;;5062343;28;20208;-70
2022/05/05 04:06:42;;;;;;;;;;;11.90;99.90;;;;;;5062234;28;19909;-70
2022/05/05 04:09:07;;;;;;;;;;;11.90;99.90;;;;;;5062325;28;19955;-70
2022/05/05 04:11:34;;;;;;;;;;;11.90;99.90;;;;;;5061578;28;19913;-70
2022/05/05 04:13:59;;;;;;;;;;;11.90;99.90;;;;;;5062249;28;20003;-71
2022/05/05 04:16:25;;;;;;;;;;;11.90;99.90;;;;;;5060948;28;19913;-70
2022/05/05 04:18:51;;;;;;;;;;;12.00;99.90;;;;;;5062229;28;20064;-70
2022/05/05 04:21:16;;;;;;;;;;;12.10;99.90;;;;;;5037955;28;19917;-68
2022/05/05 04:23:42;;;;;;;;;;;12.20;99.90;;;;;;5056146;28;19920;-69
2022/05/05 04:26:10;;;;;;;;;;;12.20;99.90;;;;;;5057091;28;19940;-70
2022/05/05 04:28:35;;;;;;;;;;;12.30;99.90;;;;;;5052108;28;19912;-70
2022/05/05 04:31:01;;;;;;;;;;;12.30;99.90;;;;;;5054744;28;19920;-69
2022/05/05 04:33:27;;;;;;;;;;;12.20;99.90;;;;;;5061767;28;19908;-69
2022/05/05 04:35:53;;;;;;;;;;;12.20;99.90;;;;;;5060276;28;19913;-69
2022/05/05 04:38:18;;;;;;;;;;;12.10;99.90;;;;;;5044020;28;19983;-69
2022/05/05 04:40:44;;;;;;;;;;;12.10;99.90;;;;;;5055367;28;19994;-69
2022/05/05 04:43:10;;;;;;;;;;;12.10;99.90;;;;;;5058338;28;19912;-69
2022/05/05 04:45:35;;;;;;;;;;;12.10;99.90;;;;;;5055876;28;19913;-69
2022/05/05 04:48:01;;;;;;;;;;;12.10;99.90;;;;;;5050213;28;20144;-69
2022/05/05 04:50:27;;;;;;;;;;;12.10;99.90;;;;;;5052411;28;19955;-70
2022/05/05 04:52:52;;;;;;;;;;;12.10;99.90;;;;;;5049919;28;19996;-69
2022/05/05 04:55:18;;;;;;;;;;;12.10;99.90;;;;;;5049928;28;19944;-69
2022/05/05 04:57:44;;;;;;;;;;;12.20;99.90;;;;;;5047495;28;20220;-69
2022/05/05 05:00:10;;;;;;;;;;;12.10;99.90;;;;;;5056583;28;20015;-69
2022/05/05 05:02:36;;;;;;;;;;;12.10;99.90;;;;;;5048770;28;19952;-68
2022/05/05 05:05:01;;;;;;;;;;;12.20;99.90;;;;;;5061333;28;20108;-68
2022/05/05 05:07:27;;;;;;;;;;;12.20;99.90;;;;;;5054911;28;19913;-70
2022/05/05 05:09:53;;;;;;;;;;;12.20;99.90;;;;;;5057250;28;19975;-72
2022/05/05 05:12:19;;;;;;;;;;;12.20;99.90;;;;;;5055071;28;19913;-72
2022/05/05 05:14:44;;;;;;;;;;;12.20;99.90;;;;;;5061412;28;19912;-72
2022/05/05 05:17:10;;;;;;;;;;;12.30;99.90;;;;;;5061235;28;20115;-72
2022/05/05 05:19:36;;;;;;;;;;;12.40;99.90;;;;;;5061227;28;19916;-72
2022/05/05 05:22:01;;;;;;;;;;;12.50;99.90;;;;;;5059995;28;19908;-72
2022/05/05 05:24:27;;;;;;;;;;;12.50;99.90;;;;;;5060121;28;19909;-71
2022/05/05 05:26:53;;;;;;;;;;;12.60;99.90;;;;;;5060040;28;19969;-72
2022/05/05 05:29:18;;;;;;;;;;;12.60;99.90;;;;;;5061247;28;19979;-71
2022/05/05 05:31:44;;;;;;;;;;;12.60;99.90;;;;;;5060453;28;19913;-72
2022/05/05 05:34:10;;;;;;;;;;;12.60;99.90;;;;;;5060398;28;19909;-75
2022/05/05 05:36:36;;;;;;;;;;;12.60;99.90;;;;;;5057010;28;19913;-72
2022/05/05 05:39:01;;;;;;;;;;;12.70;99.90;;;;;;5045275;28;20030;-70
2022/05/05 05:41:27;;;;;;;;;;;12.70;99.90;;;;;;5044430;28;19909;-70
2022/05/05 05:43:53;;;;;;;;;;;12.70;99.90;;;;;;5045290;28;19909;-70
2022/05/05 05:46:19;;;;;;;;;;;12.70;99.90;;;;;;5045130;28;19963;-70
2022/05/05 05:48:44;;;;;;;;;;;12.80;99.90;;;;;;5044832;28;19917;-69
2022/05/05 05:51:10;;;;;;;;;;;12.80;99.90;;;;;;5054660;28;20100;-69
2022/05/05 05:53:36;;;;;;;;;;;12.90;99.90;;;;;;5065264;28;19963;-69
2022/05/05 05:56:01;;;;;;;;;;;12.80;99.90;;;;;;5065120;28;19913;-71
2022/05/05 05:58:27;;;;;;;;;;;12.80;99.90;;;;;;5062730;28;19943;-69
2022/05/05 06:00:53;;;;;;;;;;;12.90;99.90;;;;;;5046317;28;19916;-69
2022/05/05 06:06:03;;;;;;;;;;;12.90;99.90;;;;;;5058215;28;19980;-69
2022/05/05 06:08:29;;;;;;;;;;;12.90;99.90;;;;;;5053189;28;19928;-70
2022/05/05 06:10:54;;;;;;;;;;;13.00;99.90;;;;;;5036372;28;20148;-69
2022/05/05 06:13:20;;;;;;;;;;;13.10;99.90;;;;;;5035401;28;19921;-69
2022/05/05 06:15:46;;;;;;;;;;;13.20;99.90;;;;;;5053485;28;19924;-69
2022/05/05 06:18:12;;;;;;;;;;;13.20;99.90;;;;;;5054841;28;19924;-70
2022/05/05 06:20:37;;;;;;;;;;;13.30;99.90;;;;;;5053695;28;20000;-69
2022/05/05 06:23:03;;;;;;;;;;;13.30;99.90;;;;;;5053387;28;20135;-69
2022/05/05 06:25:28;;;;;;;;;;;13.20;99.90;;;;;;5052886;28;19908;-69
2022/05/05 06:27:56;;;;;;;;;;;13.20;99.90;;;;;;5054619;28;19919;-69
2022/05/05 06:30:22;;;;;;;;;;;13.30;99.90;;;;;;5053285;28;19984;-70
2022/05/05 06:32:48;;;;;;;;;;;13.30;99.90;;;;;;5068061;28;19909;-70
2022/05/05 06:35:14;;;;;;;;;;;13.30;99.90;;;;;;5054446;28;19916;-69
2022/05/05 06:37:39;;;;;;;;;;;13.40;99.90;;;;;;5052587;28;20184;-69
2022/05/05 06:40:07;;;;;;;;;;;13.60;99.90;;;;;;5053256;28;19952;-69
2022/05/05 06:42:33;;;;;;;;;;;13.70;99.90;;;;;;5036354;28;19909;-70
2022/05/05 06:44:59;;;;;;;;;;;13.70;99.90;;;;;;5052890;28;20200;-70
2022/05/05 06:47:25;;;;;;;;;;;13.80;99.90;;;;;;5053015;28;19978;-70
2022/05/05 06:49:51;;;;;;;;;;;14.00;99.90;;;;;;5036385;28;19921;-69
2022/05/05 06:52:17;;;;;;;;;;;14.10;99.90;;;;;;5053046;28;19916;-69
2022/05/05 06:54:43;;;;;;;;;;;14.10;99.90;;;;;;5053234;28;19924;-69
2022/05/05 06:57:09;;;;;;;;;;;14.30;99.90;;;;;;5053603;28;20113;-70
2022/05/05 06:59:35;;;;;;;;;;;14.30;99.90;;;;;;5035843;28;19940;-70
2022/05/05 07:02:02;;;;;;;;;;;14.40;99.90;;;;;;5051328;28;19967;-69
2022/05/05 07:07:16;;;;;;;;;;;14.60;99.90;;;;;;5053525;28;19924;-69
2022/05/05 07:12:27;;;;;;;;;;;14.70;99.90;;;;;;5052365;28;19955;-69
2022/05/05 07:14:53;;;;;;;;;;;14.80;99.90;;;;;;5051231;28;19913;-69
2022/05/05 07:17:19;;;;;;;;;;;14.90;99.90;;;;;;5052998;28;19913;-70
2022/05/05 07:19:45;;;;;;;;;;;15.00;99.80;;;;;;5052572;28;19972;-70
2022/05/05 07:22:10;;;;;;;;;;;15.10;99.80;;;;;;5067145;28;19921;-70
2022/05/05 07:24:36;;;;;;;;;;;15.30;99.40;;;;;;5054597;28;19947;-69
2022/05/05 07:27:02;;;;;;;;;;;15.30;99.00;;;;;;5051905;28;19909;-69
2022/05/05 07:29:28;;;;;;;;;;;15.30;99.00;;;;;;5052957;28;19949;-70
2022/05/05 07:31:54;;;;;;;;;;;15.50;98.70;;;;;;5050395;28;19932;-70
2022/05/05 07:34:20;;;;;;;;;;;15.60;98.40;;;;;;5052849;28;19955;-69
2022/05/05 07:36:45;;;;;;;;;;;15.70;97.70;;;;;;5051954;28;19917;-69
2022/05/05 07:39:11;;;;;;;;;;;15.90;97.30;;;;;;5051086;28;19923;-70
2022/05/05 07:41:37;;;;;;;;;;;16.00;97.50;;;;;;5052176;28;19936;-70
2022/05/05 07:44:05;;;;;;;;;;;16.40;95.70;;;;;;5051486;28;20256;-69
2022/05/05 07:46:32;;;;;;;;;;;16.30;96.30;;;;;;5050934;28;20226;-70
2022/05/05 07:48:58;;;;;;;;;;;16.20;96.30;;;;;;5056674;28;20208;-69
2022/05/05 07:51:24;;;;;;;;;;;16.30;96.20;;;;;;5054916;28;19975;-69
2022/05/05 07:56:34;;;;;;;;;;;16.60;95.10;;;;;;5042905;28;20016;-70
2022/05/05 07:59:00;;;;;;;;;;;16.50;95.10;;;;;;5044589;28;19913;-69
2022/05/05 08:01:26;;;;;;;;;;;16.50;95.40;;;;;;5040854;28;19909;-69
2022/05/05 08:03:52;;;;;;;;;;;16.50;95.10;;;;;;5053063;28;19913;-69
2022/05/05 08:06:18;;;;;;;;;;;16.60;95.00;;;;;;5050846;28;20035;-70
2022/05/05 08:08:44;;;;;;;;;;;16.60;95.10;;;;;;5062243;28;19916;-70
2022/05/05 08:11:10;;;;;;;;;;;16.70;94.90;;;;;;5083067;22;19935;-68
2022/05/05 08:13:35;;;;;;;;;;;16.80;94.70;;;;;;5075536;28;19908;-68
2022/05/05 08:16:01;;;;;;;;;;;16.90;94.60;;;;;;5083656;28;19916;-66
2022/05/05 08:18:27;;;;;;;;;;;16.90;94.70;;;;;;5083226;28;19909;-68
2022/05/05 08:20:53;;;;;;;;;;;17.10;94.50;;;;;;5098502;28;19987;-68
2022/05/05 08:23:19;;;;;;;;;;;17.10;94.20;;;;;;5082680;28;19909;-68
2022/05/05 08:28:29;;;;;;;;;;;17.10;94.30;;;;;;5083733;28;19915;-68
2022/05/05 08:30:58;;;;;;;;;;;17.30;94.60;;;;;;5062130;28;19944;-68
2022/05/05 08:33:27;;;;;;;;;;;17.30;93.80;;;;;;5062981;28;19913;-68
2022/05/05 08:35:53;;;;;;;;;;;17.20;92.70;;;;;;5062269;28;19925;-66
2022/05/05 08:38:19;;;;;;;;;;;17.00;93.70;;;;;;5063275;28;19948;-69
2022/05/05 08:40:45;;;;;;;;;;;17.10;93.90;;;;;;5062563;28;19913;-70
2022/05/05 08:43:10;;;;;;;;;;;17.20;93.80;;;;;;5062818;28;19909;-70
2022/05/05 08:45:37;;;;;;;;;;;17.30;93.40;;;;;;5063198;28;19909;-66
2022/05/05 08:48:07;;;;;;;;;;;17.70;93.20;;;;;;5061920;28;20328;-71
2022/05/05 08:50:34;;;;;;;;;;;17.80;92.80;;;;;;5062636;28;19916;-68
2022/05/05 08:53:00;;;;;;;;;;;17.90;92.20;;;;;;5028609;28;19909;-69
2022/05/05 08:55:26;;;;;;;;;;;18.00;91.70;;;;;;5061643;28;19939;-68
2022/05/05 08:57:52;;;;;;;;;;;18.20;90.90;;;;;;5062817;28;19908;-66
2022/05/05 09:00:18;;;;;;;;;;;18.20;91.30;;;;;;5062165;28;19944;-70
2022/05/05 09:02:43;;;;;;;;;;;18.30;91.30;;;;;;5061953;28;19913;-67
2022/05/05 09:05:09;;;;;;;;;;;18.40;90.60;;;;;;5061805;28;19917;-67
2022/05/05 09:07:48;;;;;;;;;;;18.70;89.90;;;;;;5061697;28;19954;-67
2022/05/05 09:10:15;;;;;;;;;;;18.90;88.90;;;;;;5062611;28;19909;-67
2022/05/05 09:12:41;;;;;;;;;;;18.70;89.30;;;;;;5061923;28;19919;-67
2022/05/05 09:15:10;;;;;;;;;;;18.60;89.80;;;;;;5062747;28;19909;-68
2022/05/05 09:17:36;;;;;;;;;;;18.50;90.10;;;;;;5045051;28;20240;-67
2022/05/05 09:20:03;;;;;;;;;;;18.90;88.20;;;;;;5062529;28;19915;-72
2022/05/05 09:22:31;;;;;;;;;;;19.00;85.60;;;;;;5060633;28;19916;-67
2022/05/05 09:24:57;;;;;;;;;;;18.80;88.00;;;;;;5062762;28;19913;-65
2022/05/05 09:27:24;;;;;;;;;;;18.90;88.50;;;;;;5062421;28;19978;-66
2022/05/05 09:29:56;;;;;;;;;;;18.70;87.50;;;;;;5061689;28;19947;-66
2022/05/05 09:32:29;;;;;;;;;;;18.80;87.80;;;;;;5061525;28;20200;-66
2022/05/05 09:35:09;;;;;;;;;;;19.00;86.70;;;;;;5061830;28;19909;-70
2022/05/05 09:37:34;;;;;;;;;;;19.20;87.60;;;;;;5045886;28;19925;-67
2022/05/05 09:40:01;;;;;;;;;;;19.20;85.80;;;;;;5062713;28;19913;-67
2022/05/05 09:42:41;;;;;;;;;;;19.30;85.20;;;;;;5043989;28;19908;-71
2022/05/05 09:45:16;;;;;;;;;;;19.30;85.90;;;;;;5045172;28;19908;-71
2022/05/05 09:47:53;;;;;;;;;;;19.40;85.60;;;;;;5062554;28;19932;-71
2022/05/05 09:50:23;;;;;;;;;;;19.40;86.40;;;;;;5061284;28;19909;-70
2022/05/05 09:58:23;;;;;;;;;;;19.60;82.30;;;;;;5061364;28;19931;-71
2022/05/05 10:00:58;;;;;;;;;;;19.70;83.20;;;;;;5058576;28;19912;-71
2022/05/05 10:06:19;;;;;;;;;;;19.70;81.90;;;;;;5061450;28;19916;-71
2022/05/05 10:08:48;;;;;;;;;;;19.70;84.60;;;;;;5044856;28;19916;-70
2022/05/05 10:11:16;;;;;;;;;;;19.50;83.70;;;;;;5061009;28;19972;-72
2022/05/05 10:13:43;;;;;;;;;;;19.60;82.00;;;;;;5062238;28;20109;-72
2022/05/05 10:16:09;;;;;;;;;;;19.50;82.70;;;;;;5062102;28;19913;-70
2022/05/05 10:18:38;;;;;;;;;;;19.60;82.50;;;;;;5062262;28;19913;-70
2022/05/05 10:21:08;;;;;;;;;;;19.70;81.30;;;;;;5043792;28;19951;-71
2022/05/05 10:23:52;;;;;;;;;;;19.70;81.30;;;;;;5064401;28;19951;-70
2022/05/05 10:26:22;;;;;;;;;;;20.00;81.80;;;;;;5065415;28;19931;-71
2022/05/05 10:28:49;;;;;;;;;;;19.90;80.90;;;;;;5048157;28;19980;-71
2022/05/05 10:31:29;;;;;;;;;;;20.10;81.10;;;;;;5063930;28;20146;-71
2022/05/05 10:34:08;;;;;;;;;;;20.30;79.90;;;;;;5065271;28;19909;-66
2022/05/05 10:36:35;;;;;;;;;;;20.50;80.20;;;;;;5064343;28;19923;-67
2022/05/05 10:39:21;;;;;;;;;;;20.50;80.50;;;;;;5064644;28;19974;-68
2022/05/05 10:41:47;;;;;;;;;;;20.40;78.40;;;;;;5063528;28;19909;-70
2022/05/05 10:44:16;;;;;;;;;;;20.40;76.50;;;;;;5065702;28;19924;-71
2022/05/05 10:46:55;;;;;;;;;;;20.30;78.00;;;;;;5065444;28;19909;-70
2022/05/05 10:49:30;;;;;;;;;;;20.50;78.70;;;;;;5064155;28;19909;-70
2022/05/05 10:52:08;;;;;;;;;;;20.70;77.30;;;;;;5063800;28;20231;-69
2022/05/05 10:54:45;;;;;;;;;;;21.00;76.80;;;;;;5064698;28;19912;-70
2022/05/05 10:57:26;;;;;;;;;;;21.30;76.30;;;;;;5097250;28;19917;-66
2022/05/05 11:00:07;;;;;;;;;;;21.70;74.10;;;;;;5061541;28;19931;-67
2022/05/05 11:02:33;;;;;;;;;;;21.90;74.20;;;;;;5053367;28;19916;-69
2022/05/05 11:05:27;;;;;;;;;;;22.00;71.50;;;;;;5063880;28;19909;-67
2022/05/05 11:08:07;;;;;;;;;;;22.10;70.80;;;;;;5064867;28;19931;-68
2022/05/05 11:10:45;;;;;;;;;;;22.30;71.00;;;;;;5063498;28;19991;-68
2022/05/05 11:13:42;;;;;;;;;;;22.40;70.50;;;;;;5064637;28;19913;-69
2022/05/05 11:22:27;;;;;;;;;;;;;;;;;;4997222;28;19920;-69
2022/05/05 11:24:53;;;;;;;;;;;22.90;68.40;;;;;;5064804;28;19969;-68
2022/05/05 11:27:20;;;;;;;;;;;23.00;68.20;;;;;;5064211;28;19909;-69
2022/05/05 11:29:50;;;;;;;;;;;23.30;67.80;;;;;;5064788;28;19915;-68
2022/05/05 11:32:16;;;;;;;;;;;23.40;66.00;;;;;;5045555;28;19909;-69
2022/05/05 11:34:42;;;;;;;;;;;23.50;65.30;;;;;;5061721;28;19909;-69
2022/05/05 11:37:08;;;;;;;;;;;23.60;63.10;;;;;;5063183;28;19921;-70
2022/05/05 11:39:35;;;;;;;;;;;23.50;61.90;;;;;;5063497;28;19908;-70
2022/05/05 11:42:03;;;;;;;;;;;23.50;61.20;;;;;;5062192;28;19924;-66
2022/05/05 11:44:29;;;;;;;;;;;23.40;61.10;;;;;;5064214;28;20322;-69
2022/05/05 11:46:57;;;;;;;;;;;23.10;62.10;;;;;;5064120;28;19917;-72
2022/05/05 11:49:32;;;;;;;;;;;23.30;63.40;;;;;;5046357;28;20107;-70
2022/05/05 11:51:59;;;;;;;;;;;23.20;62.30;;;;;;5062678;28;19909;-70
2022/05/05 11:54:30;;;;;;;;;;;23.30;60.20;;;;;;5063862;28;20002;-70
2022/05/05 11:56:56;;;;;;;;;;;23.10;61.90;;;;;;5062941;28;19913;-71
2022/05/05 12:02:18;;;;;;;;;;;23.20;61.30;;;;;;5049650;28;19924;-71
2022/05/05 12:04:49;;;;;;;;;;;23.20;61.80;;;;;;5058715;28;19908;-71
2022/05/05 12:07:22;;;;;;;;;;;23.40;63.20;;;;;;5062632;28;19918;-71
2022/05/05 12:09:55;;;;;;;;;;;23.50;61.90;;;;;;5062711;28;20085;-71
2022/05/05 12:12:22;;;;;;;;;;;23.50;59.90;;;;;;5062617;28;19944;-71
2022/05/05 12:14:49;;;;;;;;;;;23.40;60.50;;;;;;5063589;28;19951;-68
2022/05/05 12:17:19;;;;;;;;;;;23.20;60.50;;;;;;5062291;28;19912;-68
2022/05/05 12:19:48;;;;;;;;;;;23.10;61.10;;;;;;5062790;28;20115;-67
2022/05/05 12:22:14;;;;;;;;;;;23.20;60.50;;;;;;5062198;28;20211;-70
2022/05/05 12:24:45;;;;;;;;;;;23.20;61.90;;;;;;5045561;28;20008;-66
2022/05/05 12:27:11;;;;;;;;;;;23.60;58.70;;;;;;5063474;28;19917;-67
2022/05/05 12:29:41;;;;;;;;;;;24.20;57.50;;;;;;5063252;28;19955;-71
2022/05/05 12:32:15;;;;;;;;;;;24.40;56.50;;;;;;5052411;28;19916;-67
2022/05/05 12:34:41;;;;;;;;;;;25.20;55.40;;;;;;5054188;28;19980;-67
2022/05/05 12:37:19;;;;;;;;;;;25.50;54.10;;;;;;5062702;28;19913;-67
2022/05/05 12:39:54;;;;;;;;;;;25.20;56.00;;;;;;5063340;28;20127;-67
2022/05/05 12:42:21;;;;;;;;;;;25.50;54.90;;;;;;5062675;28;20242;-72
2022/05/05 12:44:49;;;;;;;;;;;25.70;55.00;;;;;;5061957;28;19939;-68
2022/05/05 12:47:24;;;;;;;;;;;25.80;54.00;;;;;;5063390;28;20069;-67
2022/05/05 12:49:50;;;;;;;;;;;26.00;53.80;;;;;;5063028;28;19909;-66
2022/05/05 13:00:48;;;;;;;;;;;27.80;47.80;;;;;;5061565;28;20371;-69
2022/05/05 13:03:14;;;;;;;;;;;28.50;46.20;;;;;;5048104;28;19931;-67
2022/05/05 13:05:40;;;;;;;;;;;29.10;45.10;;;;;;5055609;28;19908;-67
2022/05/05 13:08:05;;;;;;;;;;;29.70;45.20;;;;;;5061281;28;19988;-67
2022/05/05 13:10:31;;;;;;;;;;;30.00;43.10;;;;;;5060968;28;20194;-68
2022/05/05 13:12:57;;;;;;;;;;;30.30;41.10;;;;;;5060859;28;20227;-70
2022/05/05 13:15:22;;;;;;;;;;;30.60;40.00;;;;;;5062071;28;19909;-68
2022/05/05 13:17:48;;;;;;;;;;;31.00;40.30;;;;;;5062548;28;19912;-68
2022/05/05 13:20:14;;;;;;;;;;;31.30;40.00;;;;;;5061563;28;19909;-68
2022/05/05 13:22:39;;;;;;;;;;;31.70;39.00;;;;;;5060308;28;20174;-68
2022/05/05 13:25:06;;;;;;;;;;;31.50;38.90;;;;;;5062453;28;19915;-68
2022/05/05 13:27:31;;;;;;;;;;;31.40;38.10;;;;;;5062325;28;19909;-67
2022/05/05 13:29:57;;;;;;;;;;;30.80;39.70;;;;;;5062469;28;19915;-68
2022/05/05 13:32:24;;;;;;;;;;;30.10;40.40;;;;;;5058733;28;19909;-68
2022/05/05 13:34:52;;;;;;;;;;;30.40;40.90;;;;;;5066213;28;19913;-67
2022/05/05 13:37:20;;;;;;;;;;;32.00;38.60;;;;;;5062396;28;20015;-67
2022/05/05 13:39:46;;;;;;;;;;;31.40;36.80;;;;;;5061144;28;19909;-67
2022/05/05 13:42:12;;;;;;;;;;;30.50;38.70;;;;;;5057327;28;19935;-67
2022/05/05 13:44:38;;;;;;;;;;;29.00;41.40;;;;;;5044733;28;19972;-67
2022/05/05 13:47:04;;;;;;;;;;;28.40;41.60;;;;;;5042360;28;20116;-70
2022/05/05 13:49:30;;;;;;;;;;;28.30;41.80;;;;;;5042588;28;19925;-69
2022/05/05 13:51:55;;;;;;;;;;;28.70;42.90;;;;;;5047597;28;20108;-69
2022/05/05 13:54:21;;;;;;;;;;;29.40;41.60;;;;;;5062732;28;19975;-69
2022/05/05 13:56:47;;;;;;;;;;;31.10;38.20;;;;;;5062014;28;19913;-70
2022/05/05 13:59:13;;;;;;;;;;;32.80;36.60;;;;;;5065554;28;19969;-70
2022/05/05 14:01:38;;;;;;;;;;;34.20;35.70;;;;;;5064804;28;19931;-70
2022/05/05 14:04:04;;;;;;;;;;;35.40;34.70;;;;;;5064449;28;19948;-69
2022/05/05 14:06:30;;;;;;;;;;;36.50;33.10;;;;;;5066414;28;19909;-70
2022/05/05 14:14:24;;;;;;;;;;;35.90;31.50;;;;;;5065092;28;19990;-72
2022/05/05 14:16:50;;;;;;;;;;;33.40;33.80;;;;;;5064547;28;19912;-71
2022/05/05 14:19:15;;;;;;;;;;;31.20;36.30;;;;;;5065165;28;19916;-72
2022/05/05 14:21:41;;;;;;;;;;;29.70;38.10;;;;;;5064996;28;19912;-71
2022/05/05 14:24:07;;;;;;;;;;;28.50;40.10;;;;;;5065895;28;19944;-71
2022/05/05 14:26:34;;;;;;;;;;;27.70;41.20;;;;;;5067770;28;19915;-71
2022/05/05 14:29:01;;;;;;;;;;;28.40;40.70;;;;;;5067055;28;19991;-71
2022/05/05 14:31:27;;;;;;;;;;;29.60;38.50;;;;;;5066380;28;19909;-71
2022/05/05 14:33:53;;;;;;;;;;;29.60;39.00;;;;;;5064465;28;19908;-71
2022/05/05 14:36:19;;;;;;;;;;;30.80;37.90;;;;;;5064887;28;19913;-71
2022/05/05 14:38:45;;;;;;;;;;;31.30;36.60;;;;;;5064748;28;20203;-71
2022/05/05 14:41:10;;;;;;;;;;;32.10;36.50;;;;;;5047412;28;19909;-72
2022/05/05 14:43:36;;;;;;;;;;;31.70;35.70;;;;;;5048402;28;19951;-71
2022/05/05 14:46:02;;;;;;;;;;;31.50;36.30;;;;;;5066043;28;19915;-71
2022/05/05 14:48:28;;;;;;;;;;;31.50;36.50;;;;;;5065919;28;19909;-71
2022/05/05 14:50:54;;;;;;;;;;;31.20;36.20;;;;;;5063702;28;20171;-71
2022/05/05 14:53:21;;;;;;;;;;;30.60;37.10;;;;;;5063441;28;20204;-71
2022/05/05 14:55:47;;;;;;;;;;;29.90;37.70;;;;;;5065574;28;19995;-71
2022/05/05 14:58:13;;;;;;;;;;;29.00;38.50;;;;;;5064305;28;20216;-71
2022/05/05 15:00:39;;;;;;;;;;;27.90;40.20;;;;;;5063482;28;19909;-70
2022/05/05 15:03:05;;;;;;;;;;;27.10;41.40;;;;;;5064206;28;19912;-71
2022/05/05 15:05:31;;;;;;;;;;;26.80;42.90;;;;;;5063378;28;19917;-70
2022/05/05 15:07:56;;;;;;;;;;;27.60;42.10;;;;;;5046996;28;20199;-70
2022/05/05 15:10:22;;;;;;;;;;;28.90;40.40;;;;;;5064057;28;19909;-70
2022/05/05 15:12:51;;;;;;;;;;;29.80;39.20;;;;;;5062815;28;20139;-70
2022/05/05 15:15:17;;;;;;;;;;;30.80;37.20;;;;;;5065167;28;19908;-68
2022/05/05 15:17:43;;;;;;;;;;;31.40;36.70;;;;;;5064465;28;19920;-72
2022/05/05 15:20:10;;;;;;;;;;;31.00;36.90;;;;;;5064033;28;20222;-70